sensor_id;sensor_type;location;lat;lon;timestamp;P1;durP1;ratioP1;P2;durP2;ratioP2
74328;SDS011;62745;51.060;13.786;2022-10-31T00:01:25;29.60;;;16.98;;
74328;SDS011;62745;51.060;13.786;2022-10-31T00:03:55;34.05;;;18.80;;
74328;SDS011;62745;51.060;13.786;2022-10-31T00:06:20;30.63;;;16.55;;
74328;SDS011;62745;51.060;13.786;2022-10-31T00:08:46;29.20;;;15.25;;
74328;SDS011;62745;51.060;13.786;2022-10-31T00:11:12;29.27;;;16.95;;
74328;SDS011;62745;51.060;13.786;2022-10-31T00:13:38;25.98;;;15.05;;
74328;SDS011;62745;51.060;13.786;2022-10-31T00:16:03;26.20;;;14.70;;
74328;SDS011;62745;51.060;13.786;2022-10-31T00:18:29;30.40;;;16.40;;
74328;SDS011;62745;51.060;13.786;2022-10-31T00:20:58;27.93;;;16.10;;
74328;SDS011;62745;51.060;13.786;2022-10-31T00:23:24;32.90;;;15.00;;
74328;SDS011;62745;51.060;13.786;2022-10-31T00:25:50;27.65;;;15.63;;
74328;SDS011;62745;51.060;13.786;2022-10-31T00:28:15;35.13;;;16.95;;
74328;SDS011;62745;51.060;13.786;2022-10-31T00:30:40;30.83;;;16.43;;
74328;SDS011;62745;51.060;13.786;2022-10-31T00:33:05;27.87;;;17.20;;
74328;SDS011;62745;51.060;13.786;2022-10-31T00:35:31;29.92;;;16.98;;
74328;SDS011;62745;51.060;13.786;2022-10-31T00:37:57;28.95;;;15.13;;
74328;SDS011;62745;51.060;13.786;2022-10-31T00:40:22;27.87;;;16.27;;
74328;SDS011;62745;51.060;13.786;2022-10-31T00:42:47;32.28;;;16.58;;
74328;SDS011;62745;51.060;13.786;2022-10-31T00:45:13;31.30;;;15.17;;
74328;SDS011;62745;51.060;13.786;2022-10-31T00:47:38;30.55;;;16.73;;
74328;SDS011;62745;51.060;13.786;2022-10-31T00:50:04;27.10;;;14.65;;
74328;SDS011;62745;51.060;13.786;2022-10-31T00:52:30;27.98;;;13.77;;
74328;SDS011;62745;51.060;13.786;2022-10-31T00:54:55;25.25;;;11.98;;
74328;SDS011;62745;51.060;13.786;2022-10-31T00:57:21;21.07;;;13.57;;
74328;SDS011;62745;51.060;13.786;2022-10-31T00:59:46;25.92;;;12.90;;
74328;SDS011;62745;51.060;13.786;2022-10-31T01:02:11;26.20;;;12.13;;
74328;SDS011;62745;51.060;13.786;2022-10-31T01:04:37;25.37;;;11.70;;
74328;SDS011;62745;51.060;13.786;2022-10-31T01:07:02;22.48;;;11.40;;
74328;SDS011;62745;51.060;13.786;2022-10-31T01:09:27;27.63;;;12.45;;
74328;SDS011;62745;51.060;13.786;2022-10-31T01:11:53;31.87;;;13.67;;
74328;SDS011;62745;51.060;13.786;2022-10-31T01:14:18;27.03;;;14.57;;
74328;SDS011;62745;51.060;13.786;2022-10-31T01:16:43;24.73;;;14.30;;
74328;SDS011;62745;51.060;13.786;2022-10-31T01:19:08;22.63;;;12.23;;
74328;SDS011;62745;51.060;13.786;2022-10-31T01:21:34;22.93;;;13.83;;
74328;SDS011;62745;51.060;13.786;2022-10-31T01:23:59;24.10;;;13.45;;
74328;SDS011;62745;51.060;13.786;2022-10-31T01:26:27;24.65;;;12.65;;
74328;SDS011;62745;51.060;13.786;2022-10-31T01:28:56;20.20;;;10.95;;
74328;SDS011;62745;51.060;13.786;2022-10-31T01:31:27;19.88;;;11.52;;
74328;SDS011;62745;51.060;13.786;2022-10-31T01:33:54;21.83;;;9.82;;
74328;SDS011;62745;51.060;13.786;2022-10-31T01:36:30;17.33;;;9.00;;
74328;SDS011;62745;51.060;13.786;2022-10-31T01:38:59;17.55;;;8.90;;
74328;SDS011;62745;51.060;13.786;2022-10-31T01:41:26;14.88;;;8.75;;
74328;SDS011;62745;51.060;13.786;2022-10-31T01:43:55;17.85;;;9.82;;
74328;SDS011;62745;51.060;13.786;2022-10-31T01:46:24;22.10;;;11.35;;
74328;SDS011;62745;51.060;13.786;2022-10-31T01:48:54;18.88;;;11.18;;
74328;SDS011;62745;51.060;13.786;2022-10-31T01:51:23;19.23;;;10.20;;
74328;SDS011;62745;51.060;13.786;2022-10-31T01:53:54;23.73;;;11.73;;
74328;SDS011;62745;51.060;13.786;2022-10-31T01:56:22;23.60;;;12.63;;
74328;SDS011;62745;51.060;13.786;2022-10-31T01:58:48;21.52;;;13.43;;
74328;SDS011;62745;51.060;13.786;2022-10-31T02:01:14;24.13;;;12.15;;
74328;SDS011;62745;51.060;13.786;2022-10-31T02:03:42;21.85;;;10.02;;
74328;SDS011;62745;51.060;13.786;2022-10-31T02:06:10;17.67;;;9.13;;
74328;SDS011;62745;51.060;13.786;2022-10-31T02:08:38;20.80;;;11.40;;
74328;SDS011;62745;51.060;13.786;2022-10-31T02:11:04;21.33;;;11.65;;
74328;SDS011;62745;51.060;13.786;2022-10-31T02:13:32;22.92;;;10.30;;
74328;SDS011;62745;51.060;13.786;2022-10-31T02:15:58;28.00;;;11.60;;
74328;SDS011;62745;51.060;13.786;2022-10-31T02:18:24;25.63;;;11.45;;
74328;SDS011;62745;51.060;13.786;2022-10-31T02:24:00;24.17;;;12.35;;
74328;SDS011;62745;51.060;13.786;2022-10-31T02:29:43;18.13;;;11.85;;
74328;SDS011;62745;51.060;13.786;2022-10-31T02:38:09;14.05;;;7.68;;
74328;SDS011;62745;51.060;13.786;2022-10-31T02:41:01;15.20;;;7.88;;
74328;SDS011;62745;51.060;13.786;2022-10-31T02:46:47;15.70;;;7.82;;
74328;SDS011;62745;51.060;13.786;2022-10-31T02:49:27;15.02;;;7.40;;
74328;SDS011;62745;51.060;13.786;2022-10-31T02:51:58;16.63;;;7.72;;
74328;SDS011;62745;51.060;13.786;2022-10-31T02:54:24;13.83;;;8.10;;
74328;SDS011;62745;51.060;13.786;2022-10-31T02:56:53;14.13;;;8.38;;
74328;SDS011;62745;51.060;13.786;2022-10-31T02:59:23;14.27;;;7.63;;
74328;SDS011;62745;51.060;13.786;2022-10-31T03:02:05;14.02;;;7.30;;
74328;SDS011;62745;51.060;13.786;2022-10-31T03:04:49;13.82;;;7.80;;
74328;SDS011;62745;51.060;13.786;2022-10-31T03:07:44;14.38;;;7.32;;
74328;SDS011;62745;51.060;13.786;2022-10-31T03:18:39;16.70;;;8.57;;
74328;SDS011;62745;51.060;13.786;2022-10-31T03:21:14;15.82;;;8.15;;
74328;SDS011;62745;51.060;13.786;2022-10-31T03:23:47;14.25;;;6.85;;
74328;SDS011;62745;51.060;13.786;2022-10-31T03:26:15;17.55;;;6.85;;
74328;SDS011;62745;51.060;13.786;2022-10-31T03:31:43;19.05;;;8.68;;
74328;SDS011;62745;51.060;13.786;2022-10-31T03:34:13;17.25;;;9.90;;
74328;SDS011;62745;51.060;13.786;2022-10-31T03:36:42;19.52;;;10.27;;
74328;SDS011;62745;51.060;13.786;2022-10-31T03:39:14;17.42;;;8.10;;
74328;SDS011;62745;51.060;13.786;2022-10-31T03:41:43;17.73;;;8.50;;
74328;SDS011;62745;51.060;13.786;2022-10-31T03:44:16;22.13;;;9.95;;
74328;SDS011;62745;51.060;13.786;2022-10-31T03:46:44;19.58;;;9.52;;
74328;SDS011;62745;51.060;13.786;2022-10-31T03:49:10;19.17;;;10.35;;
74328;SDS011;62745;51.060;13.786;2022-10-31T03:51:39;19.38;;;8.73;;
74328;SDS011;62745;51.060;13.786;2022-10-31T03:54:18;16.90;;;9.07;;
74328;SDS011;62745;51.060;13.786;2022-10-31T03:56:52;17.85;;;9.40;;
74328;SDS011;62745;51.060;13.786;2022-10-31T03:59:23;18.42;;;9.43;;
74328;SDS011;62745;51.060;13.786;2022-10-31T04:01:57;18.40;;;9.38;;
74328;SDS011;62745;51.060;13.786;2022-10-31T04:04:27;20.33;;;10.25;;
74328;SDS011;62745;51.060;13.786;2022-10-31T04:06:54;16.70;;;9.35;;
74328;SDS011;62745;51.060;13.786;2022-10-31T04:09:22;17.42;;;9.80;;
74328;SDS011;62745;51.060;13.786;2022-10-31T04:11:50;18.08;;;9.18;;
74328;SDS011;62745;51.060;13.786;2022-10-31T04:14:18;18.55;;;9.63;;
74328;SDS011;62745;51.060;13.786;2022-10-31T04:16:45;17.55;;;9.75;;
74328;SDS011;62745;51.060;13.786;2022-10-31T04:19:11;17.38;;;8.27;;
74328;SDS011;62745;51.060;13.786;2022-10-31T04:21:37;17.65;;;9.00;;
74328;SDS011;62745;51.060;13.786;2022-10-31T04:24:02;17.55;;;10.10;;
74328;SDS011;62745;51.060;13.786;2022-10-31T04:26:28;17.17;;;9.40;;
74328;SDS011;62745;51.060;13.786;2022-10-31T04:28:53;15.17;;;8.63;;
74328;SDS011;62745;51.060;13.786;2022-10-31T04:31:19;16.63;;;8.03;;
74328;SDS011;62745;51.060;13.786;2022-10-31T04:33:44;19.65;;;9.10;;
74328;SDS011;62745;51.060;13.786;2022-10-31T04:36:10;18.98;;;10.45;;
74328;SDS011;62745;51.060;13.786;2022-10-31T04:38:35;20.88;;;10.68;;
74328;SDS011;62745;51.060;13.786;2022-10-31T04:41:00;17.97;;;9.40;;
74328;SDS011;62745;51.060;13.786;2022-10-31T04:43:26;20.02;;;10.82;;
74328;SDS011;62745;51.060;13.786;2022-10-31T04:45:51;23.67;;;10.97;;
74328;SDS011;62745;51.060;13.786;2022-10-31T04:48:16;17.30;;;9.23;;
74328;SDS011;62745;51.060;13.786;2022-10-31T04:50:42;18.45;;;9.90;;
74328;SDS011;62745;51.060;13.786;2022-10-31T04:53:07;19.73;;;11.23;;
74328;SDS011;62745;51.060;13.786;2022-10-31T04:55:32;20.63;;;10.13;;
74328;SDS011;62745;51.060;13.786;2022-10-31T04:57:58;21.20;;;11.20;;
74328;SDS011;62745;51.060;13.786;2022-10-31T05:00:23;17.25;;;9.95;;
74328;SDS011;62745;51.060;13.786;2022-10-31T05:02:50;20.25;;;9.90;;
74328;SDS011;62745;51.060;13.786;2022-10-31T05:05:18;19.60;;;9.77;;
74328;SDS011;62745;51.060;13.786;2022-10-31T05:07:45;18.95;;;10.57;;
74328;SDS011;62745;51.060;13.786;2022-10-31T05:10:16;20.55;;;11.13;;
74328;SDS011;62745;51.060;13.786;2022-10-31T05:12:47;20.88;;;12.13;;
74328;SDS011;62745;51.060;13.786;2022-10-31T05:15:13;23.50;;;12.02;;
74328;SDS011;62745;51.060;13.786;2022-10-31T05:17:39;21.23;;;10.95;;
74328;SDS011;62745;51.060;13.786;2022-10-31T05:20:04;18.52;;;10.57;;
74328;SDS011;62745;51.060;13.786;2022-10-31T05:22:30;18.30;;;10.32;;
74328;SDS011;62745;51.060;13.786;2022-10-31T05:24:55;18.42;;;11.32;;
74328;SDS011;62745;51.060;13.786;2022-10-31T05:27:21;18.33;;;11.40;;
74328;SDS011;62745;51.060;13.786;2022-10-31T05:29:46;19.73;;;10.47;;
74328;SDS011;62745;51.060;13.786;2022-10-31T05:32:11;17.97;;;10.80;;
74328;SDS011;62745;51.060;13.786;2022-10-31T05:34:37;14.97;;;9.43;;
74328;SDS011;62745;51.060;13.786;2022-10-31T05:37:02;20.95;;;10.68;;
74328;SDS011;62745;51.060;13.786;2022-10-31T05:39:27;18.00;;;11.60;;
74328;SDS011;62745;51.060;13.786;2022-10-31T05:41:52;18.80;;;10.80;;
74328;SDS011;62745;51.060;13.786;2022-10-31T05:44:18;17.00;;;9.73;;
74328;SDS011;62745;51.060;13.786;2022-10-31T05:46:43;15.67;;;9.10;;
74328;SDS011;62745;51.060;13.786;2022-10-31T05:49:10;19.50;;;10.60;;
74328;SDS011;62745;51.060;13.786;2022-10-31T05:51:35;16.97;;;8.90;;
74328;SDS011;62745;51.060;13.786;2022-10-31T05:54:01;18.60;;;11.47;;
74328;SDS011;62745;51.060;13.786;2022-10-31T05:56:26;18.63;;;10.40;;
74328;SDS011;62745;51.060;13.786;2022-10-31T05:58:51;18.33;;;10.53;;
74328;SDS011;62745;51.060;13.786;2022-10-31T06:01:17;17.53;;;9.93;;
74328;SDS011;62745;51.060;13.786;2022-10-31T06:03:42;22.63;;;11.17;;
74328;SDS011;62745;51.060;13.786;2022-10-31T06:06:07;18.53;;;10.57;;
74328;SDS011;62745;51.060;13.786;2022-10-31T06:08:32;18.63;;;10.38;;
74328;SDS011;62745;51.060;13.786;2022-10-31T06:10:58;18.47;;;11.37;;
74328;SDS011;62745;51.060;13.786;2022-10-31T06:13:23;20.40;;;10.40;;
74328;SDS011;62745;51.060;13.786;2022-10-31T06:15:48;18.83;;;10.63;;
74328;SDS011;62745;51.060;13.786;2022-10-31T06:18:13;18.57;;;11.10;;
74328;SDS011;62745;51.060;13.786;2022-10-31T06:20:39;19.05;;;10.90;;
74328;SDS011;62745;51.060;13.786;2022-10-31T06:23:04;17.03;;;10.23;;
74328;SDS011;62745;51.060;13.786;2022-10-31T06:25:30;17.63;;;10.30;;
74328;SDS011;62745;51.060;13.786;2022-10-31T06:27:55;19.53;;;10.67;;
74328;SDS011;62745;51.060;13.786;2022-10-31T06:30:20;16.98;;;11.13;;
74328;SDS011;62745;51.060;13.786;2022-10-31T06:32:46;16.33;;;10.02;;
74328;SDS011;62745;51.060;13.786;2022-10-31T06:35:11;17.50;;;9.47;;
74328;SDS011;62745;51.060;13.786;2022-10-31T06:37:37;17.13;;;9.77;;
74328;SDS011;62745;51.060;13.786;2022-10-31T06:40:02;19.88;;;10.05;;
74328;SDS011;62745;51.060;13.786;2022-10-31T06:42:28;18.60;;;10.40;;
74328;SDS011;62745;51.060;13.786;2022-10-31T06:44:53;17.63;;;11.27;;
74328;SDS011;62745;51.060;13.786;2022-10-31T06:47:19;16.23;;;9.65;;
74328;SDS011;62745;51.060;13.786;2022-10-31T06:49:44;15.02;;;9.68;;
74328;SDS011;62745;51.060;13.786;2022-10-31T06:52:09;14.90;;;9.20;;
74328;SDS011;62745;51.060;13.786;2022-10-31T06:54:35;16.35;;;8.75;;
74328;SDS011;62745;51.060;13.786;2022-10-31T06:57:00;17.77;;;9.07;;
74328;SDS011;62745;51.060;13.786;2022-10-31T06:59:25;15.03;;;10.73;;
74328;SDS011;62745;51.060;13.786;2022-10-31T07:01:50;13.10;;;8.53;;
74328;SDS011;62745;51.060;13.786;2022-10-31T07:04:16;13.63;;;8.52;;
74328;SDS011;62745;51.060;13.786;2022-10-31T07:06:41;16.23;;;9.10;;
74328;SDS011;62745;51.060;13.786;2022-10-31T07:09:06;14.03;;;8.40;;
74328;SDS011;62745;51.060;13.786;2022-10-31T07:11:32;15.45;;;8.55;;
74328;SDS011;62745;51.060;13.786;2022-10-31T07:13:57;16.52;;;8.98;;
74328;SDS011;62745;51.060;13.786;2022-10-31T07:16:22;14.17;;;8.80;;
74328;SDS011;62745;51.060;13.786;2022-10-31T07:18:48;13.93;;;8.90;;
74328;SDS011;62745;51.060;13.786;2022-10-31T07:21:13;14.10;;;9.10;;
74328;SDS011;62745;51.060;13.786;2022-10-31T07:23:38;14.55;;;8.80;;
74328;SDS011;62745;51.060;13.786;2022-10-31T07:26:04;14.30;;;9.77;;
74328;SDS011;62745;51.060;13.786;2022-10-31T07:28:29;19.23;;;9.55;;
74328;SDS011;62745;51.060;13.786;2022-10-31T07:30:56;14.40;;;10.38;;
74328;SDS011;62745;51.060;13.786;2022-10-31T07:33:22;13.50;;;9.07;;
74328;SDS011;62745;51.060;13.786;2022-10-31T07:35:50;13.38;;;9.50;;
74328;SDS011;62745;51.060;13.786;2022-10-31T07:38:15;13.80;;;8.30;;
74328;SDS011;62745;51.060;13.786;2022-10-31T07:40:41;14.60;;;10.60;;
74328;SDS011;62745;51.060;13.786;2022-10-31T07:43:07;15.27;;;9.13;;
74328;SDS011;62745;51.060;13.786;2022-10-31T07:45:33;14.25;;;9.05;;
74328;SDS011;62745;51.060;13.786;2022-10-31T07:47:58;14.68;;;10.18;;
74328;SDS011;62745;51.060;13.786;2022-10-31T07:50:25;12.90;;;8.07;;
74328;SDS011;62745;51.060;13.786;2022-10-31T07:53:02;13.13;;;8.43;;
74328;SDS011;62745;51.060;13.786;2022-10-31T07:55:32;17.02;;;9.73;;
74328;SDS011;62745;51.060;13.786;2022-10-31T07:58:05;13.77;;;9.95;;
74328;SDS011;62745;51.060;13.786;2022-10-31T08:00:35;14.65;;;9.25;;
74328;SDS011;62745;51.060;13.786;2022-10-31T08:03:03;13.93;;;8.82;;
74328;SDS011;62745;51.060;13.786;2022-10-31T08:05:30;20.77;;;12.00;;
74328;SDS011;62745;51.060;13.786;2022-10-31T08:07:56;13.00;;;8.43;;
74328;SDS011;62745;51.060;13.786;2022-10-31T08:10:22;16.02;;;10.65;;
74328;SDS011;62745;51.060;13.786;2022-10-31T08:12:58;14.98;;;9.18;;
74328;SDS011;62745;51.060;13.786;2022-10-31T08:15:28;14.15;;;10.30;;
74328;SDS011;62745;51.060;13.786;2022-10-31T08:17:54;13.50;;;9.48;;
74328;SDS011;62745;51.060;13.786;2022-10-31T08:20:20;14.48;;;10.18;;
74328;SDS011;62745;51.060;13.786;2022-10-31T08:25:20;12.18;;;9.15;;
74328;SDS011;62745;51.060;13.786;2022-10-31T08:27:51;16.38;;;10.40;;
74328;SDS011;62745;51.060;13.786;2022-10-31T08:30:18;14.70;;;9.48;;
74328;SDS011;62745;51.060;13.786;2022-10-31T08:32:45;12.82;;;8.85;;
74328;SDS011;62745;51.060;13.786;2022-10-31T08:35:10;13.98;;;10.52;;
74328;SDS011;62745;51.060;13.786;2022-10-31T08:37:36;12.88;;;9.13;;
74328;SDS011;62745;51.060;13.786;2022-10-31T08:40:01;12.77;;;8.97;;
74328;SDS011;62745;51.060;13.786;2022-10-31T08:42:27;13.05;;;9.25;;
74328;SDS011;62745;51.060;13.786;2022-10-31T08:44:52;11.43;;;8.23;;
74328;SDS011;62745;51.060;13.786;2022-10-31T08:47:17;13.60;;;7.70;;
74328;SDS011;62745;51.060;13.786;2022-10-31T08:49:42;13.87;;;8.90;;
74328;SDS011;62745;51.060;13.786;2022-10-31T08:52:08;13.90;;;8.10;;
74328;SDS011;62745;51.060;13.786;2022-10-31T08:54:33;13.20;;;8.43;;
74328;SDS011;62745;51.060;13.786;2022-10-31T08:56:58;13.47;;;8.40;;
74328;SDS011;62745;51.060;13.786;2022-10-31T08:59:23;13.73;;;8.93;;
74328;SDS011;62745;51.060;13.786;2022-10-31T09:01:49;12.67;;;7.67;;
74328;SDS011;62745;51.060;13.786;2022-10-31T09:04:14;13.40;;;7.50;;
74328;SDS011;62745;51.060;13.786;2022-10-31T09:06:39;13.15;;;9.60;;
74328;SDS011;62745;51.060;13.786;2022-10-31T09:09:05;10.35;;;6.80;;
74328;SDS011;62745;51.060;13.786;2022-10-31T09:11:30;12.25;;;8.65;;
74328;SDS011;62745;51.060;13.786;2022-10-31T09:13:56;12.38;;;7.65;;
74328;SDS011;62745;51.060;13.786;2022-10-31T09:16:21;10.43;;;7.32;;
74328;SDS011;62745;51.060;13.786;2022-10-31T09:18:46;11.03;;;7.70;;
74328;SDS011;62745;51.060;13.786;2022-10-31T09:21:12;12.00;;;8.07;;
74328;SDS011;62745;51.060;13.786;2022-10-31T09:23:37;10.43;;;6.57;;
74328;SDS011;62745;51.060;13.786;2022-10-31T09:26:02;11.88;;;7.18;;
74328;SDS011;62745;51.060;13.786;2022-10-31T09:28:28;11.90;;;7.40;;
74328;SDS011;62745;51.060;13.786;2022-10-31T09:30:53;12.07;;;7.38;;
74328;SDS011;62745;51.060;13.786;2022-10-31T09:33:19;12.32;;;7.63;;
74328;SDS011;62745;51.060;13.786;2022-10-31T09:35:45;11.10;;;6.60;;
74328;SDS011;62745;51.060;13.786;2022-10-31T09:38:16;11.45;;;7.03;;
74328;SDS011;62745;51.060;13.786;2022-10-31T09:40:49;11.20;;;6.60;;
74328;SDS011;62745;51.060;13.786;2022-10-31T09:43:37;10.25;;;6.28;;
74328;SDS011;62745;51.060;13.786;2022-10-31T09:46:24;10.15;;;6.88;;
74328;SDS011;62745;51.060;13.786;2022-10-31T09:52:10;11.55;;;7.53;;
74328;SDS011;62745;51.060;13.786;2022-10-31T09:57:19;11.73;;;5.68;;
74328;SDS011;62745;51.060;13.786;2022-10-31T09:59:50;10.57;;;7.70;;
74328;SDS011;62745;51.060;13.786;2022-10-31T10:02:17;10.70;;;6.10;;
74328;SDS011;62745;51.060;13.786;2022-10-31T10:05:24;8.68;;;6.60;;
74328;SDS011;62745;51.060;13.786;2022-10-31T10:08:00;9.88;;;6.35;;
74328;SDS011;62745;51.060;13.786;2022-10-31T10:13:33;11.88;;;6.60;;
74328;SDS011;62745;51.060;13.786;2022-10-31T10:24:31;11.43;;;5.45;;
74328;SDS011;62745;51.060;13.786;2022-10-31T10:27:46;11.55;;;5.65;;
74328;SDS011;62745;51.060;13.786;2022-10-31T10:32:43;9.82;;;5.25;;
74328;SDS011;62745;51.060;13.786;2022-10-31T10:38:01;9.98;;;5.15;;
74328;SDS011;62745;51.060;13.786;2022-10-31T10:40:33;8.10;;;4.68;;
74328;SDS011;62745;51.060;13.786;2022-10-31T10:45:50;10.15;;;4.20;;
74328;SDS011;62745;51.060;13.786;2022-10-31T10:49:04;8.85;;;4.00;;
74328;SDS011;62745;51.060;13.786;2022-10-31T10:51:40;9.00;;;4.65;;
74328;SDS011;62745;51.060;13.786;2022-10-31T10:59:44;9.10;;;3.92;;
74328;SDS011;62745;51.060;13.786;2022-10-31T11:02:31;9.38;;;3.75;;
74328;SDS011;62745;51.060;13.786;2022-10-31T11:04:58;8.95;;;3.80;;
74328;SDS011;62745;51.060;13.786;2022-10-31T11:07:25;13.07;;;5.00;;
74328;SDS011;62745;51.060;13.786;2022-10-31T11:10:04;10.38;;;4.05;;
74328;SDS011;62745;51.060;13.786;2022-10-31T11:12:38;10.70;;;4.15;;
74328;SDS011;62745;51.060;13.786;2022-10-31T11:15:15;11.02;;;4.75;;
74328;SDS011;62745;51.060;13.786;2022-10-31T11:17:46;9.52;;;4.07;;
74328;SDS011;62745;51.060;13.786;2022-10-31T11:22:42;10.33;;;4.53;;
74328;SDS011;62745;51.060;13.786;2022-10-31T11:27:47;11.73;;;4.95;;
74328;SDS011;62745;51.060;13.786;2022-10-31T11:30:24;14.75;;;5.57;;
74328;SDS011;62745;51.060;13.786;2022-10-31T11:32:49;13.47;;;5.77;;
74328;SDS011;62745;51.060;13.786;2022-10-31T11:35:17;17.73;;;6.55;;
74328;SDS011;62745;51.060;13.786;2022-10-31T11:37:45;14.25;;;7.05;;
74328;SDS011;62745;51.060;13.786;2022-10-31T11:40:31;13.90;;;5.80;;
74328;SDS011;62745;51.060;13.786;2022-10-31T11:42:56;16.70;;;7.40;;
74328;SDS011;62745;51.060;13.786;2022-10-31T11:47:49;13.60;;;7.30;;
74328;SDS011;62745;51.060;13.786;2022-10-31T11:50:25;17.15;;;6.93;;
74328;SDS011;62745;51.060;13.786;2022-10-31T11:52:59;16.80;;;6.57;;
74328;SDS011;62745;51.060;13.786;2022-10-31T11:58:02;14.05;;;6.97;;
74328;SDS011;62745;51.060;13.786;2022-10-31T12:00:32;17.73;;;6.65;;
74328;SDS011;62745;51.060;13.786;2022-10-31T12:03:18;18.10;;;7.50;;
74328;SDS011;62745;51.060;13.786;2022-10-31T12:05:46;17.25;;;7.40;;
74328;SDS011;62745;51.060;13.786;2022-10-31T12:08:16;16.17;;;7.72;;
74328;SDS011;62745;51.060;13.786;2022-10-31T12:13:32;13.88;;;7.30;;
74328;SDS011;62745;51.060;13.786;2022-10-31T12:16:05;14.45;;;6.53;;
74328;SDS011;62745;51.060;13.786;2022-10-31T12:21:19;10.85;;;5.05;;
74328;SDS011;62745;51.060;13.786;2022-10-31T12:23:51;15.30;;;5.53;;
74328;SDS011;62745;51.060;13.786;2022-10-31T12:29:09;10.73;;;4.90;;
74328;SDS011;62745;51.060;13.786;2022-10-31T12:34:37;12.23;;;5.60;;
74328;SDS011;62745;51.060;13.786;2022-10-31T12:45:26;11.75;;;4.75;;
74328;SDS011;62745;51.060;13.786;2022-10-31T12:54:29;13.07;;;5.30;;
74328;SDS011;62745;51.060;13.786;2022-10-31T12:57:28;14.45;;;5.88;;
74328;SDS011;62745;51.060;13.786;2022-10-31T13:00:18;13.02;;;5.53;;
74328;SDS011;62745;51.060;13.786;2022-10-31T13:02:52;12.82;;;5.22;;
74328;SDS011;62745;51.060;13.786;2022-10-31T13:05:24;11.50;;;5.13;;
74328;SDS011;62745;51.060;13.786;2022-10-31T13:07:55;12.65;;;5.50;;
74328;SDS011;62745;51.060;13.786;2022-10-31T13:10:28;13.38;;;4.88;;
74328;SDS011;62745;51.060;13.786;2022-10-31T13:13:05;11.95;;;5.95;;
74328;SDS011;62745;51.060;13.786;2022-10-31T13:15:45;13.63;;;4.50;;
74328;SDS011;62745;51.060;13.786;2022-10-31T13:18:31;11.55;;;4.95;;
74328;SDS011;62745;51.060;13.786;2022-10-31T13:21:02;9.43;;;4.45;;
74328;SDS011;62745;51.060;13.786;2022-10-31T13:23:33;9.88;;;4.55;;
74328;SDS011;62745;51.060;13.786;2022-10-31T13:26:08;12.60;;;4.63;;
74328;SDS011;62745;51.060;13.786;2022-10-31T13:28:41;9.95;;;4.60;;
74328;SDS011;62745;51.060;13.786;2022-10-31T13:31:11;10.27;;;4.45;;
74328;SDS011;62745;51.060;13.786;2022-10-31T13:33:41;12.50;;;4.22;;
74328;SDS011;62745;51.060;13.786;2022-10-31T13:39:01;8.73;;;3.70;;
74328;SDS011;62745;51.060;13.786;2022-10-31T13:41:51;9.13;;;4.50;;
74328;SDS011;62745;51.060;13.786;2022-10-31T13:44:27;8.05;;;3.72;;
74328;SDS011;62745;51.060;13.786;2022-10-31T13:46:54;9.70;;;4.50;;
74328;SDS011;62745;51.060;13.786;2022-10-31T13:49:25;9.20;;;3.95;;
74328;SDS011;62745;51.060;13.786;2022-10-31T13:54:35;13.40;;;4.10;;
74328;SDS011;62745;51.060;13.786;2022-10-31T13:57:06;9.27;;;4.45;;
74328;SDS011;62745;51.060;13.786;2022-10-31T13:59:38;10.77;;;3.85;;
74328;SDS011;62745;51.060;13.786;2022-10-31T14:02:12;8.95;;;3.65;;
74328;SDS011;62745;51.060;13.786;2022-10-31T14:04:45;10.25;;;4.20;;
74328;SDS011;62745;51.060;13.786;2022-10-31T14:07:14;11.30;;;4.72;;
74328;SDS011;62745;51.060;13.786;2022-10-31T14:10:04;11.15;;;4.78;;
74328;SDS011;62745;51.060;13.786;2022-10-31T14:12:44;13.77;;;5.00;;
74328;SDS011;62745;51.060;13.786;2022-10-31T14:15:20;9.95;;;4.47;;
74328;SDS011;62745;51.060;13.786;2022-10-31T14:18:17;12.00;;;4.90;;
74328;SDS011;62745;51.060;13.786;2022-10-31T14:20:46;9.63;;;3.97;;
74328;SDS011;62745;51.060;13.786;2022-10-31T14:28:56;9.82;;;4.05;;
74328;SDS011;62745;51.060;13.786;2022-10-31T14:37:14;9.55;;;3.58;;
74328;SDS011;62745;51.060;13.786;2022-10-31T14:45:29;10.80;;;3.67;;
74328;SDS011;62745;51.060;13.786;2022-10-31T14:48:24;13.25;;;3.80;;
74328;SDS011;62745;51.060;13.786;2022-10-31T14:50:52;8.07;;;3.35;;
74328;SDS011;62745;51.060;13.786;2022-10-31T14:55:54;11.35;;;4.13;;
74328;SDS011;62745;51.060;13.786;2022-10-31T14:58:37;10.95;;;4.07;;
74328;SDS011;62745;51.060;13.786;2022-10-31T15:01:05;13.00;;;3.78;;
74328;SDS011;62745;51.060;13.786;2022-10-31T15:03:32;10.38;;;3.83;;
74328;SDS011;62745;51.060;13.786;2022-10-31T15:06:02;10.48;;;4.20;;
74328;SDS011;62745;51.060;13.786;2022-10-31T15:08:37;8.68;;;4.10;;
74328;SDS011;62745;51.060;13.786;2022-10-31T15:11:11;10.55;;;4.60;;
74328;SDS011;62745;51.060;13.786;2022-10-31T15:13:42;10.40;;;4.60;;
74328;SDS011;62745;51.060;13.786;2022-10-31T15:16:10;10.60;;;4.20;;
74328;SDS011;62745;51.060;13.786;2022-10-31T15:18:39;9.30;;;4.20;;
74328;SDS011;62745;51.060;13.786;2022-10-31T15:21:14;11.93;;;5.30;;
74328;SDS011;62745;51.060;13.786;2022-10-31T15:23:41;15.07;;;4.45;;
74328;SDS011;62745;51.060;13.786;2022-10-31T15:26:11;12.07;;;5.03;;
74328;SDS011;62745;51.060;13.786;2022-10-31T15:28:42;11.70;;;4.70;;
74328;SDS011;62745;51.060;13.786;2022-10-31T15:31:17;9.68;;;3.97;;
74328;SDS011;62745;51.060;13.786;2022-10-31T15:33:42;12.38;;;3.92;;
74328;SDS011;62745;51.060;13.786;2022-10-31T15:36:18;10.40;;;4.13;;
74328;SDS011;62745;51.060;13.786;2022-10-31T15:38:45;14.82;;;4.45;;
74328;SDS011;62745;51.060;13.786;2022-10-31T15:41:31;8.45;;;3.75;;
74328;SDS011;62745;51.060;13.786;2022-10-31T15:44:01;8.57;;;3.92;;
74328;SDS011;62745;51.060;13.786;2022-10-31T15:46:32;9.50;;;4.30;;
74328;SDS011;62745;51.060;13.786;2022-10-31T15:48:58;11.68;;;4.55;;
74328;SDS011;62745;51.060;13.786;2022-10-31T15:51:28;12.38;;;4.43;;
74328;SDS011;62745;51.060;13.786;2022-10-31T15:53:56;9.50;;;3.92;;
74328;SDS011;62745;51.060;13.786;2022-10-31T15:56:25;8.45;;;3.75;;
74328;SDS011;62745;51.060;13.786;2022-10-31T15:58:57;11.13;;;4.65;;
74328;SDS011;62745;51.060;13.786;2022-10-31T16:01:24;10.07;;;3.63;;
74328;SDS011;62745;51.060;13.786;2022-10-31T16:06:24;9.60;;;4.68;;
74328;SDS011;62745;51.060;13.786;2022-10-31T16:08:49;10.13;;;4.90;;
74328;SDS011;62745;51.060;13.786;2022-10-31T16:11:16;13.68;;;4.72;;
74328;SDS011;62745;51.060;13.786;2022-10-31T16:14:02;11.00;;;4.75;;
74328;SDS011;62745;51.060;13.786;2022-10-31T16:16:33;12.70;;;4.22;;
74328;SDS011;62745;51.060;13.786;2022-10-31T16:19:04;12.52;;;4.70;;
74328;SDS011;62745;51.060;13.786;2022-10-31T16:21:37;12.73;;;5.15;;
74328;SDS011;62745;51.060;13.786;2022-10-31T16:24:04;10.43;;;5.13;;
74328;SDS011;62745;51.060;13.786;2022-10-31T16:26:40;11.27;;;5.05;;
74328;SDS011;62745;51.060;13.786;2022-10-31T16:29:22;11.25;;;5.13;;
74328;SDS011;62745;51.060;13.786;2022-10-31T16:31:50;8.48;;;5.55;;
74328;SDS011;62745;51.060;13.786;2022-10-31T16:34:20;11.17;;;5.87;;
74328;SDS011;62745;51.060;13.786;2022-10-31T16:36:46;10.52;;;5.55;;